• Join FlightAware (Why Join?)
  • Login
  • US Flag 
07:14AM EDT


 

Airport Tracker/Info


-or-


 

Live Flight TrackerFlight Track Log ✈ EJA941 ✈ 07-Oct-2013 ✈ KDLH - KMDW

Flight Track Log - Related Links

Times and Time Zones

All times are in EDT time to prevent confusion due to time zone crossing. See the EJA941 flight status page for this flight to view local times or setup timezone preferences in your user account.

Time Position Orientation Groundspeed Altitude Reporting Facility
EDT Latitude Longitude Course Direction KTS MPH feet Rate Location/Type
10:23PM 46.7956 -92.2853 145° Southeast 257 296 7,300  Level Minneapolis Center
10:24PM 46.7436 -92.1975 131° Southeast 304 350 10,400 2,880 Climbing Minneapolis Center
10:25PM 46.7058 -92.0522 111° Southeast 319 367 13,300 2,160 Climbing Minneapolis Center
10:26PM 46.6133 -91.9742 150° Southeast 375 432 14,900 1,560 Climbing Minneapolis Center
10:27PM 46.3758 -91.7433 126° Southeast  Level Estimated
10:27PM 46.5189 -91.8817 146° Southeast 408 470 16,500  Level Minneapolis Center
10:28PM 46.2823 -91.6542 145° Southeast  Level Estimated
10:28PM 46.4267 -91.7706 140° Southeast 428 493 18,100  Level Minneapolis Center
10:29PM 46.3264 -91.6594 143° Southeast 449 517 19,800 1,740 Climbing Minneapolis Center
10:30PM 46.2186 -91.5392 142° Southeast 465 535 21,700 1,800 Climbing Minneapolis Center
10:31PM 46.1172 -91.4236 142° Southeast 465 535 23,500 1,740 Climbing Minneapolis Center
10:32PM 46.0117 -91.3050 142° Southeast 475 547 25,300 1,740 Climbing Minneapolis Center
10:33PM 45.9006 -91.1839 143° Southeast 491 565 27,100 1,800 Climbing Minneapolis Center
10:34PM 45.7872 -91.0606 143° Southeast 509 586 29,000 1,740 Climbing Minneapolis Center
10:35PM 45.6750 -90.9378 143° Southeast 510 587 30,700 1,860 Climbing Minneapolis Center
10:36PM 45.5633 -90.8125 142° Southeast 511 588 32,800 2,040 Climbing Minneapolis Center
10:37PM 45.4258 -90.6636 143° Southeast 518 596 34,900 1,020 Climbing Minneapolis Center
10:38PM 45.3058 -90.5344 143° Southeast 532 612 35,000  Climbing Minneapolis Center
10:39PM 45.1786 -90.3981 143° Southeast 560 644 35,000  Level Minneapolis Center
10:40PM 45.0511 -90.2614 143° Southeast 573 659 35,000  Level Minneapolis Center
10:41PM 44.9239 -90.1264 143° Southeast 576 663 35,000  Level Minneapolis Center
10:42PM 44.7919 -89.9869 143° Southeast 577 664 35,000  Level Minneapolis Center
10:43PM 44.6642 -89.8522 143° Southeast 577 664 35,000  Level Minneapolis Center
10:44PM 44.5356 -89.7175 143° Southeast 577 664 35,000 -360 Level Minneapolis Center
10:45PM 44.4228 -89.5656 136° Southeast 581 669 34,300 -1,140 Descending Minneapolis Center
10:46PM 44.3289 -89.3942 127° Southeast 562 647 32,700 -2,400 Descending Minneapolis Center
10:47PM 44.2256 -89.1742 123° Southeast 563 648 29,400 -2,880 Descending Minneapolis Center
10:48PM 44.1106 -89.0325 138° Southeast 556 640 26,900 -2,400 Descending Minneapolis Center
10:49PM 44.0075 -88.9506 150° Southeast 542 624 24,900 -2,340 Descending Chicago Center
10:50PM 43.8792 -88.8542 152° Southeast 530 610 22,500 -2,340 Descending Chicago Center
10:51PM 43.7544 -88.7589 151° Southeast 517 595 20,200 -2,280 Descending Chicago Center
10:52PM 43.6322 -88.6678 152° Southeast 506 582 17,900 -2,460 Descending Chicago Center
10:53PM 43.4936 -88.5633 151° Southeast 482 555 15,300 -2,100 Descending Chicago Center
10:54PM 43.3994 -88.4931 152° Southeast 467 537 13,700 -1,680 Descending Chicago Center
10:55PM 43.2875 -88.3978 148° Southeast 445 512 11,900 -1,800 Descending Chicago Center
10:56PM 43.2000 -88.2892 138° Southeast 428 493 10,100 -960 Descending Chicago Center
10:57PM 43.1203 -88.1883 137° Southeast 400 460 10,000 -60 Descending Chicago Center
10:58PM 43.0433 -88.0925 138° Southeast 377 434 10,000  Level Chicago Center
10:59PM 42.9561 -87.9797 137° Southeast 364 419 10,000 -540 Level Chicago Center
11:00PM 42.8911 -87.8956 136° Southeast 324 373 9,000 -1,440 Descending Chicago Center
11:01PM 42.8169 -87.8503 156° South 301 346 7,100 -1,920 Descending Chicago Center
11:02PM 42.7414 -87.8231 165° South 283 326 5,200 -1,560 Descending Chicago Center
11:03PM 42.6703 -87.8142 175° South 266 306 4,000 -600 Descending Chicago Center
11:04PM 42.5972 -87.8061 175° South 261 300 4,000  Level Chicago Center
11:05PM 42.5217 -87.7986 176° South 271 312 4,000  Level Chicago Center
11:06PM 42.4478 -87.7997 181° South 267 307 4,000 780 Level Chicago Center
11:07PM 42.3803 -87.8417 205° Southwest 263 303 5,700 960 Climbing Chicago Center
11:08PM 42.3111 -87.8728 198° South 268 308 6,000 120 Climbing Chicago Center
11:09PM 42.2381 -87.8936 192° South 269 310 6,000  Level Chicago Center
11:10PM 42.1503 -87.9136 190° South 269 310 6,000  Level Chicago Center
11:11PM 42.0833 -87.9167 182° South 266 306 6,000  Level Chicago TRACON
11:12PM 42.0000 -87.9167 180° South 225 259 6,000 -180 Level Chicago TRACON
11:13PM 41.9500 -87.9167 180° South 222 255 5,700 -840 Descending Chicago TRACON
11:14PM 41.9000 -87.9167 180° South 202 232 4,400 -1,620 Descending Chicago TRACON
11:15PM 41.8667 -87.8667 132° Southeast 173 199 2,700 -1,260 Descending Chicago TRACON
11:16PM 41.8333 -87.8167 132° Southeast 140 161 1,900 -720 Descending Chicago TRACON
11:17PM 41.8103 -87.7872 136° Southeast 148 170 1,200 -540 Descending Chicago Center
11:18PM 41.7822 -87.7497 135° Southeast 141 162 800 -420 Descending Chicago Center